Hauptseite
METAR-TAF:

METAR-TAF

Flughäfen :

Grise Fiord, Nunavut, Kanada

Breite: 76-25N, Länge: 082-54W, Höhe: 45 m

Beobachtung

Neuester Wetterbericht von vor 48 Minuten, um 17:00 UTC
Wind 3 kt aus Südwest
Temperatur 1°C
Luftfeuchtigkeit 86%
Luftdruck 1004 hPa
Sichtweite: 11.3 km
Leicht bewölkt in der Höhe von 1000 ft
Durchbrochene Bewölkung in der Höhe von 6200 ft
feuchter Dunst

METAR: CWGZ 231700Z 22003KT 7SM BR FEW010 BKN062 01/M01 A2966 RMK SF1SC7 SF TR SLP049

Zeit: 13:48 (17:48 UTC)


TAF: fehlend

Wetterbeobachtungen und Prognosen von mehr als 4000 Flughäfen (METAR und TAF Bericht).

Die verfügbaren Stationen werden durch gelbe und rote Markierungen auf der Karte dargestellt.

Führen Sie die Maus auf sie, um den Namen der Station zu sehen.

Darauf klicken, um die Beobachtung von Wetterbeobachtungen und Prognosen zu sehen.

Um die Karte zu ändern : klicken Sie auf den grünen Tasten mit einem schwarzen Kreuz Zum Vergrößern, auf den grünen Button mit einem Gedankenstrich zu verkleinern, oder auf die grünen Pfeile für benachbarte Karten.


METAR-TAF: